Time;durP1;ratioP1;P1;durP2;ratioP2;P2;SDS_P1;SDS_P2;PMS_P1;PMS_P2;Temp;Humidity;BMP_temperature;BMP_pressure;BME280_temperature;BME280_humidity;BME280_pressure;Samples;Min_cycle;Max_cycle;Signal;HPM_P1;HPM_P2
2022/10/05 00:00:51;;;;;;;6.32;2.60;;;;;;;-146.61;100.00;58846.50;5030858;28;20120;-78
2022/10/05 00:03:19;;;;;;;4.97;3.47;;;;;;;-146.61;100.00;58846.50;5025232;28;20167;-77
2022/10/05 00:05:46;;;;;;;7.18;3.55;;;;;;;-146.61;100.00;58846.50;5027116;28;20073;-78
2022/10/05 00:08:17;;;;;;;6.95;3.63;;;;;;;-146.61;100.00;58846.50;5025768;28;20069;-76
2022/10/05 00:10:45;;;;;;;3.92;3.42;;;;;;;-146.61;100.00;58846.50;5027356;28;20053;-76
2022/10/05 00:13:20;;;;;;;12.20;5.07;;;;;;;-146.61;100.00;58846.50;5025601;28;20064;-78
2022/10/05 00:15:48;;;;;;;9.93;6.07;;;;;;;-146.61;100.00;58846.50;5030385;28;20038;-77
2022/10/05 00:18:18;;;;;;;11.32;5.22;;;;;;;-146.61;100.00;58846.50;5026201;28;20141;-77
2022/10/05 00:20:46;;;;;;;8.75;4.22;;;;;;;-146.61;100.00;58846.50;5022690;28;20041;-78
2022/10/05 00:23:31;;;;;;;6.82;4.70;;;;;;;-146.61;100.00;58846.50;5028194;28;20033;-79
2022/10/05 00:26:11;;;;;;;14.60;7.28;;;;;;;-146.61;100.00;58846.50;5025619;28;20053;-76
2022/10/05 00:28:38;;;;;;;14.65;6.78;;;;;;;-146.61;100.00;58846.50;5020574;28;20045;-78
2022/10/05 00:31:14;;;;;;;9.38;5.43;;;;;;;-146.61;100.00;58846.50;5028830;28;20043;-81
2022/10/05 00:33:41;;;;;;;8.85;5.70;;;;;;;-146.61;100.00;58846.50;5030196;28;20132;-76
2022/10/05 00:36:07;;;;;;;8.50;4.88;;;;;;;-146.61;100.00;58846.50;5030655;28;20076;-76
2022/10/05 00:38:34;;;;;;;5.75;3.92;;;;;;;-146.61;100.00;58846.50;5029977;28;20045;-78
2022/10/05 00:41:03;;;;;;;6.05;4.13;;;;;;;-146.61;100.00;58846.50;5028811;28;20144;-78
2022/10/05 00:43:51;;;;;;;4.55;2.97;;;;;;;-146.61;100.00;58846.50;5028381;28;20137;-77
2022/10/05 00:46:30;;;;;;;8.88;2.97;;;;;;;-146.61;100.00;58846.50;5027693;28;20045;-79
2022/10/05 00:49:06;;;;;;;4.53;2.80;;;;;;;-146.61;100.00;58846.50;5027321;28;20097;-75
2022/10/05 00:51:37;;;;;;;3.50;3.20;;;;;;;-146.61;100.00;58846.50;5023963;28;20053;-75
2022/10/05 00:54:29;;;;;;;3.97;3.53;;;;;;;-146.61;100.00;58846.50;5023034;28;20046;-83
2022/10/05 00:57:17;;;;;;;4.25;3.05;;;;;;;-146.61;100.00;58846.50;5023627;28;20888;-76
2022/10/05 00:59:59;;;;;;;3.67;3.20;;;;;;;-146.61;100.00;58846.50;5028524;28;20038;-77
2022/10/05 01:02:51;;;;;;;4.57;2.70;;;;;;;-146.61;100.00;58846.50;5028949;28;20046;-76
2022/10/05 01:05:43;;;;;;;5.15;2.42;;;;;;;-146.61;100.00;58846.50;5022235;28;20057;-75
2022/10/05 01:08:34;;;;;;;3.33;3.03;;;;;;;-146.61;100.00;58846.50;5027565;28;20128;-75
2022/10/05 01:11:15;;;;;;;5.88;2.60;;;;;;;-146.61;100.00;58846.50;5030809;28;20084;-77
2022/10/05 01:13:41;;;;;;;4.82;2.83;;;;;;;-146.61;100.00;58846.50;5034340;28;20107;-76
2022/10/05 01:16:19;;;;;;;4.05;3.30;;;;;;;-146.61;100.00;58846.50;5033242;28;20052;-76
2022/10/05 01:18:53;;;;;;;5.35;3.40;;;;;;;-146.61;100.00;58846.50;5030921;28;20155;-77
2022/10/05 01:21:22;;;;;;;4.40;2.75;;;;;;;-146.61;100.00;58846.50;5028519;28;20120;-74
2022/10/05 01:24:12;;;;;;;3.75;2.83;;;;;;;-146.61;100.00;58846.50;5033524;28;20427;-76
2022/10/05 01:27:09;;;;;;;3.08;2.75;;;;;;;-146.61;100.00;58846.50;5028188;28;20068;-75
2022/10/05 01:30:24;;;;;;;3.95;3.00;;;;;;;-146.61;100.00;58846.50;5031590;28;20056;-75
2022/10/05 01:33:07;;;;;;;2.30;2.10;;;;;;;-146.61;100.00;58846.50;5032854;28;20492;-75
2022/10/05 01:35:56;;;;;;;4.75;2.55;;;;;;;-146.61;100.00;58846.50;5032053;28;20046;-75
2022/10/05 01:38:47;;;;;;;7.55;3.22;;;;;;;-146.61;100.00;58846.50;5035526;28;20048;-77
2022/10/05 01:41:43;;;;;;;4.25;2.40;;;;;;;-146.61;100.00;58846.50;5029366;28;20049;-75
2022/10/05 01:44:15;;;;;;;7.30;4.00;;;;;;;-146.61;100.00;58846.50;5034822;28;20112;-77
2022/10/05 01:47:02;;;;;;;7.28;2.90;;;;;;;-146.61;100.00;58846.50;5034728;28;20033;-77
2022/10/05 01:49:50;;;;;;;5.00;2.55;;;;;;;-146.61;100.00;58846.50;5029815;28;20527;-76
2022/10/05 01:52:32;;;;;;;3.38;2.33;;;;;;;-146.61;100.00;58846.50;5031024;28;20045;-75
2022/10/05 01:55:14;;;;;;;5.05;3.10;;;;;;;-146.61;100.00;58846.50;5032067;28;20041;-76
2022/10/05 01:57:47;;;;;;;5.15;2.80;;;;;;;-146.61;100.00;58846.50;5033075;28;20049;-75
2022/10/05 02:00:18;;;;;;;3.00;2.67;;;;;;;-146.61;100.00;58846.50;5032279;28;20136;-78
2022/10/05 02:03:08;;;;;;;2.53;2.33;;;;;;;-146.61;100.00;58846.50;5032094;28;20041;-78
2022/10/05 02:05:49;;;;;;;3.80;2.75;;;;;;;-146.61;100.00;58846.50;5029327;28;20468;-77
2022/10/05 02:08:40;;;;;;;3.03;2.58;;;;;;;-146.61;100.00;58846.50;5028746;28;20095;-77
2022/10/05 02:11:14;;;;;;;5.68;2.97;;;;;;;-146.61;100.00;58846.50;5017966;28;20054;-77
2022/10/05 02:13:47;;;;;;;3.22;2.85;;;;;;;-146.61;100.00;58846.50;5027275;28;20030;-77
2022/10/05 02:16:33;;;;;;;6.72;2.92;;;;;;;-146.61;100.00;58846.50;5044843;28;20076;-77
2022/10/05 02:19:16;;;;;;;2.42;2.22;;;;;;;-146.61;100.00;58846.50;5028645;28;20045;-78
2022/10/05 02:21:46;;;;;;;2.80;2.33;;;;;;;-146.61;100.00;58846.50;5029978;28;20437;-77
2022/10/05 02:24:20;;;;;;;2.88;2.38;;;;;;;-146.61;100.00;58846.50;5036521;28;20115;-78
2022/10/05 02:26:48;;;;;;;3.58;2.97;;;;;;;-146.61;100.00;58846.50;5029965;28;20423;-77
2022/10/05 02:29:19;;;;;;;6.50;2.67;;;;;;;-146.61;100.00;58846.50;5031216;28;20037;-77
2022/10/05 02:31:59;;;;;;;3.30;2.70;;;;;;;-146.61;100.00;58846.50;5026324;28;20516;-78
2022/10/05 02:34:40;;;;;;;4.70;3.08;;;;;;;-146.61;100.00;58846.50;5025265;28;20061;-76
2022/10/05 02:37:34;;;;;;;6.13;2.80;;;;;;;-146.61;100.00;58846.50;5028434;28;20056;-77
2022/10/05 02:40:13;;;;;;;3.55;2.90;;;;;;;-146.61;100.00;58846.50;5030718;28;20055;-78
2022/10/05 02:42:52;;;;;;;4.07;3.10;;;;;;;-146.61;100.00;58846.50;5021222;28;20052;-78
2022/10/05 02:45:35;;;;;;;5.63;2.67;;;;;;;-146.61;100.00;58846.50;5043732;28;20050;-77
2022/10/05 02:48:19;;;;;;;3.40;2.78;;;;;;;-146.61;100.00;58846.50;5027420;28;20064;-78
2022/10/05 02:51:23;;;;;;;6.68;3.75;;;;;;;-146.61;100.00;58846.50;5028087;28;20095;-76
2022/10/05 02:54:05;;;;;;;4.22;2.83;;;;;;;-146.61;100.00;58846.50;5024435;28;20045;-78
2022/10/05 02:56:35;;;;;;;7.22;2.90;;;;;;;-146.61;100.00;58846.50;5025293;28;20045;-80
2022/10/05 02:59:14;;;;;;;3.15;2.63;;;;;;;-146.61;100.00;58846.50;5029638;28;20041;-78
2022/10/05 03:01:55;;;;;;;3.47;2.95;;;;;;;-146.61;100.00;58846.50;5025320;28;20508;-78
2022/10/05 03:04:39;;;;;;;3.83;2.70;;;;;;;-146.61;100.00;58846.50;5028246;28;20045;-77
2022/10/05 03:07:16;;;;;;;2.80;2.47;;;;;;;-146.61;100.00;58846.50;5034678;28;20050;-78
2022/10/05 03:09:59;;;;;;;4.78;2.63;;;;;;;-146.61;100.00;58846.50;5028262;28;20743;-77
2022/10/05 03:12:47;;;;;;;5.03;3.40;;;;;;;-146.61;100.00;58846.50;5029569;28;20120;-76
2022/10/05 03:15:47;;;;;;;6.57;3.72;;;;;;;-146.61;100.00;58846.50;5030193;28;20107;-78
2022/10/05 03:18:26;;;;;;;5.70;3.13;;;;;;;-146.61;100.00;58846.50;5025077;28;20187;-78
2022/10/05 03:21:05;;;;;;;5.38;4.30;;;;;;;-146.61;100.00;58846.50;5031921;28;20454;-76
2022/10/05 03:23:52;;;;;;;8.38;3.92;;;;;;;-146.61;100.00;58846.50;5029489;28;20061;-79
2022/10/05 03:26:33;;;;;;;6.22;4.03;;;;;;;-146.61;100.00;58846.50;5031955;28;20058;-76
2022/10/05 03:29:07;;;;;;;6.25;3.33;;;;;;;-146.61;100.00;58846.50;5030226;28;20050;-81
2022/10/05 03:32:19;;;;;;;3.25;2.95;;;;;;;-146.61;100.00;58846.50;5031620;28;20065;-77
2022/10/05 03:35:11;;;;;;;3.72;3.42;;;;;;;-146.61;100.00;58846.50;5004450;28;20041;-77
2022/10/05 03:37:49;;;;;;;5.63;3.10;;;;;;;-146.61;100.00;58846.50;5028174;28;20049;-75
2022/10/05 03:40:33;;;;;;;3.88;3.58;;;;;;;-146.61;100.00;58846.50;5030471;28;20117;-77
2022/10/05 03:43:36;;;;;;;5.53;3.47;;;;;;;-146.61;100.00;58846.50;5025283;28;20041;-75
2022/10/05 03:46:20;;;;;;;4.55;3.15;;;;;;;-146.61;100.00;58846.50;5027469;28;20065;-81
2022/10/05 03:49:00;;;;;;;5.18;3.35;;;;;;;-146.61;100.00;58846.50;5028987;28;20116;-80
2022/10/05 03:51:34;;;;;;;4.10;3.05;;;;;;;-146.61;100.00;58846.50;5030570;28;20041;-77
2022/10/05 03:54:10;;;;;;;5.07;3.75;;;;;;;-146.61;100.00;58846.50;5033756;28;20038;-78
2022/10/05 03:56:43;;;;;;;5.25;3.40;;;;;;;-146.61;100.00;58846.50;5026347;28;20038;-76
2022/10/05 03:59:26;;;;;;;4.78;3.10;;;;;;;-146.61;100.00;58846.50;5028601;28;20134;-78
2022/10/05 04:02:02;;;;;;;4.43;3.13;;;;;;;-146.61;100.00;58846.50;5027230;28;20045;-81
2022/10/05 04:04:51;;;;;;;10.65;3.38;;;;;;;-146.61;100.00;58846.50;5030221;28;20120;-78
2022/10/05 04:07:37;;;;;;;5.32;3.65;;;;;;;-146.61;100.00;58846.50;5024918;28;20081;-79
2022/10/05 04:10:13;;;;;;;4.55;3.47;;;;;;;-146.61;100.00;58846.50;5031793;28;20037;-77
2022/10/05 04:12:44;;;;;;;6.75;3.85;;;;;;;-146.61;100.00;58846.50;5025623;28;20045;-79
2022/10/05 04:15:21;;;;;;;4.45;3.15;;;;;;;-146.61;100.00;58846.50;5030718;28;20063;-78
2022/10/05 04:17:54;;;;;;;6.25;3.65;;;;;;;-146.61;100.00;58846.50;5027957;28;20037;-79
2022/10/05 04:20:21;;;;;;;;;;;;;;;-146.61;100.00;58846.50;5027718;28;20064;-78
2022/10/05 04:23:17;;;;;;;6.70;3.50;;;;;;;-146.61;100.00;58846.50;5025446;28;20028;-77
2022/10/05 04:25:48;;;;;;;4.97;3.58;;;;;;;-146.61;100.00;58846.50;5028925;28;20333;-76
2022/10/05 04:28:40;;;;;;;6.18;3.40;;;;;;;-146.61;100.00;58846.50;5020623;28;20053;-78
2022/10/05 04:31:13;;;;;;;5.30;3.42;;;;;;;-146.61;100.00;58846.50;5026832;28;20507;-79
2022/10/05 04:33:40;;;;;;;4.32;3.70;;;;;;;-146.61;100.00;58846.50;5025835;28;20052;-78
2022/10/05 04:36:21;;;;;;;6.95;3.40;;;;;;;-146.61;100.00;58846.50;5026941;28;20809;-82
2022/10/05 04:39:06;;;;;;;4.03;3.63;;;;;;;-146.61;100.00;58846.50;5020180;28;20042;-77
2022/10/05 04:41:38;;;;;;;5.97;3.65;;;;;;;-146.61;100.00;58846.50;5024484;28;20048;-77
2022/10/05 04:44:42;;;;;;;4.38;3.60;;;;;;;-146.61;100.00;58846.50;5027518;28;20488;-79
2022/10/05 04:47:58;;;;;;;7.90;3.50;;;;;;;-146.61;100.00;58846.50;5025056;28;20061;-75
2022/10/05 04:50:49;;;;;;;4.65;3.97;;;;;;;-146.61;100.00;58846.50;5025771;28;20300;-75
2022/10/05 04:53:46;;;;;;;10.05;3.85;;;;;;;-146.61;100.00;58846.50;5041253;28;20404;-78
2022/10/05 04:56:26;;;;;;;8.05;4.35;;;;;;;-146.61;100.00;58846.50;5026776;28;20050;-80
2022/10/05 04:59:23;;;;;;;4.30;3.95;;;;;;;-146.61;100.00;58846.50;5030376;28;20048;-77
2022/10/05 05:02:04;;;;;;;7.68;3.95;;;;;;;-146.61;100.00;58846.50;5028722;28;20048;-75
2022/10/05 05:05:01;;;;;;;7.20;4.43;;;;;;;-146.61;100.00;58846.50;5023688;28;20042;-77
2022/10/05 05:07:49;;;;;;;5.68;3.95;;;;;;;-146.61;100.00;58846.50;5027873;28;20395;-76
2022/10/05 05:10:43;;;;;;;4.53;3.67;;;;;;;-146.61;100.00;58846.50;5015452;28;20386;-76
2022/10/05 05:13:17;;;;;;;;;;;;;;;-146.61;100.00;58846.50;5027300;28;20045;-80
2022/10/05 05:15:57;;;;;;;5.43;3.95;;;;;;;-146.61;100.00;58846.50;5035028;28;19960;-76
2022/10/05 05:18:58;;;;;;;9.38;4.85;;;;;;;-146.61;100.00;58846.50;5026269;28;20049;-78
2022/10/05 05:22:00;;;;;;;8.50;4.38;;;;;;;-146.61;100.00;58846.50;5025202;28;20042;-75
2022/10/05 05:25:09;;;;;;;7.85;4.55;;;;;;;-146.61;100.00;58846.50;5028780;28;20108;-75
2022/10/05 05:27:41;;;;;;;6.85;4.22;;;;;;;-146.61;100.00;58846.50;5029510;28;20149;-76
2022/10/05 05:30:21;;;;;;;4.88;4.18;;;;;;;-146.61;100.00;58846.50;5028750;28;20120;-75
2022/10/05 05:33:20;;;;;;;9.35;4.38;;;;;;;-146.61;100.00;58846.50;5029006;28;20060;-75
2022/10/05 05:36:11;;;;;;;8.07;4.20;;;;;;;-146.61;100.00;58846.50;5029656;28;20145;-78
2022/10/05 05:38:44;;;;;;;8.40;4.32;;;;;;;-146.61;100.00;58846.50;5030907;28;20048;-77
2022/10/05 05:41:32;;;;;;;9.45;4.38;;;;;;;-146.61;100.00;58846.50;5027825;28;20111;-77
2022/10/05 05:44:11;;;;;;;8.23;4.43;;;;;;;-146.61;100.00;58846.50;5023406;28;20041;-77
2022/10/05 05:46:53;;;;;;;6.13;4.93;;;;;;;-146.61;100.00;58846.50;5025242;28;20121;-78
2022/10/05 05:49:32;;;;;;;11.07;4.82;;;;;;;-146.61;100.00;58846.50;5021777;28;20050;-79
2022/10/05 05:52:05;;;;;;;7.60;5.07;;;;;;;-146.61;100.00;58846.50;5025035;28;20061;-81
2022/10/05 05:54:39;;;;;;;11.82;4.75;;;;;;;-146.61;100.00;58846.50;5024563;28;20146;-78
2022/10/05 05:57:23;;;;;;;9.63;4.68;;;;;;;-146.61;100.00;58846.50;5027273;28;20049;-77
2022/10/05 05:59:53;;;;;;;;;;;;;;;-146.61;100.00;58846.50;5017802;28;20111;-76
2022/10/05 06:02:25;;;;;;;12.65;5.65;;;;;;;-146.61;100.00;58846.50;5026771;28;19925;-78
2022/10/05 06:04:58;;;;;;;8.15;5.03;;;;;;;-146.61;100.00;58846.50;5026048;28;20754;-77
2022/10/05 06:07:29;;;;;;;9.65;5.25;;;;;;;-146.61;100.00;58846.50;5028320;28;20045;-78
2022/10/05 06:10:14;;;;;;;9.20;4.93;;;;;;;-146.61;100.00;58846.50;5031979;28;20042;-78
2022/10/05 06:12:47;;;;;;;5.85;4.63;;;;;;;-146.61;100.00;58846.50;5030073;28;20555;-79
2022/10/05 06:15:22;;;;;;;6.82;4.95;;;;;;;-146.61;100.00;58846.50;5032646;28;20072;-77
2022/10/05 06:17:53;;;;;;;4.60;3.85;;;;;;;-146.61;100.00;58846.50;5032620;28;20073;-76
2022/10/05 06:20:30;;;;;;;9.38;5.07;;;;;;;-146.61;100.00;58846.50;5035714;28;20128;-77
2022/10/05 06:23:04;;;;;;;6.65;4.57;;;;;;;-146.61;100.00;58846.50;5033071;28;20038;-76
2022/10/05 06:25:39;;;;;;;5.82;4.40;;;;;;;-146.61;100.00;58846.50;5033052;28;20096;-77
2022/10/05 06:28:13;;;;;;;14.30;5.60;;;;;;;-146.61;100.00;58846.50;5032126;28;20140;-77
2022/10/05 06:30:40;;;;;;;6.80;4.63;;;;;;;-146.61;100.00;58846.50;5027594;28;20141;-75
2022/10/05 06:33:27;;;;;;;9.23;4.15;;;;;;;-146.61;100.00;58846.50;5032507;28;20103;-76
2022/10/05 06:36:04;;;;;;;8.13;5.22;;;;;;;-146.61;100.00;58846.50;5031705;28;20704;-78
2022/10/05 06:39:04;;;;;;;4.95;4.45;;;;;;;-146.61;100.00;58846.50;5031770;28;20649;-83
2022/10/05 06:41:49;;;;;;;5.70;4.60;;;;;;;-146.61;100.00;58846.50;5025989;28;20124;-77
2022/10/05 06:44:23;;;;;;;7.28;4.78;;;;;;;-146.61;100.00;58846.50;5035518;28;20061;-76
2022/10/05 06:47:07;;;;;;;8.00;4.30;;;;;;;-146.61;100.00;58846.50;5034304;28;20041;-77
2022/10/05 06:49:50;;;;;;;28.13;6.72;;;;;;;-146.61;100.00;58846.50;5033258;28;20507;-78
2022/10/05 06:52:29;;;;;;;8.40;5.22;;;;;;;-146.61;100.00;58846.50;5035670;28;20038;-77
2022/10/05 06:55:27;;;;;;;6.57;4.90;;;;;;;-146.61;100.00;58846.50;5031055;28;20096;-78
2022/10/05 06:58:25;;;;;;;7.63;4.95;;;;;;;-146.61;100.00;58846.50;5028831;28;20069;-77
2022/10/05 07:01:04;;;;;;;8.57;4.00;;;;;;;-146.61;100.00;58846.50;5026162;28;20106;-77
2022/10/05 07:03:51;;;;;;;5.85;4.07;;;;;;;-146.61;100.00;58846.50;5029427;28;20749;-76
2022/10/05 07:06:36;;;;;;;5.65;3.70;;;;;;;-146.61;100.00;58846.50;5026909;28;20045;-78
2022/10/05 07:09:36;;;;;;;8.07;5.00;;;;;;;-146.61;100.00;58846.50;5031508;28;20156;-76
2022/10/05 07:12:38;;;;;;;5.78;3.55;;;;;;;-146.61;100.00;58846.50;5032050;28;20041;-75
2022/10/05 07:15:41;;;;;;;8.00;5.22;;;;;;;-146.61;100.00;58846.50;5032751;28;20061;-80
2022/10/05 07:18:10;;;;;;;5.25;4.40;;;;;;;-146.61;100.00;58846.50;5028870;28;20679;-83
2022/10/05 07:20:52;;;;;;;6.70;3.70;;;;;;;-146.61;100.00;58846.50;5030585;28;20079;-77
2022/10/05 07:23:24;;;;;;;7.68;4.82;;;;;;;-146.61;100.00;58846.50;5030369;28;20468;-76
2022/10/05 07:26:18;;;;;;;5.53;4.22;;;;;;;-146.61;100.00;58846.50;5028006;28;20046;-78
2022/10/05 07:28:50;;;;;;;7.18;3.78;;;;;;;-146.61;100.00;58846.50;5032595;28;20132;-75
2022/10/05 07:31:47;;;;;;;8.93;4.72;;;;;;;-146.61;100.00;58846.50;5033544;28;20041;-77
2022/10/05 07:34:34;;;;;;;7.05;5.05;;;;;;;-146.61;100.00;58846.50;5029489;28;20088;-77
2022/10/05 07:40:03;;;;;;;6.15;4.93;;;;;;;-146.61;100.00;58846.50;5025670;28;20041;-78
2022/10/05 07:42:39;;;;;;;10.07;5.32;;;;;;;-146.61;100.00;58846.50;5026070;28;20134;-77
2022/10/05 07:45:27;;;;;;;6.57;4.65;;;;;;;-146.61;100.00;58846.50;5029890;28;20041;-78
2022/10/05 07:47:57;;;;;;;6.72;4.95;;;;;;;-146.61;100.00;58846.50;5025094;28;20429;-77
2022/10/05 07:50:34;;;;;;;8.20;4.50;;;;;;;-146.61;100.00;58846.50;5028089;28;20054;-77
2022/10/05 07:53:39;;;;;;;11.82;5.25;;;;;;;-146.61;100.00;58846.50;5028784;28;20480;-77
2022/10/05 07:56:15;;;;;;;7.38;4.57;;;;;;;-146.61;100.00;58846.50;4950880;28;20077;-77
2022/10/05 07:58:50;;;;;;;5.45;4.88;;;;;;;-146.61;100.00;58846.50;5020301;28;20080;-76
2022/10/05 08:01:44;;;;;;;7.20;4.90;;;;;;;-146.61;100.00;58846.50;5027981;28;20051;-76
2022/10/05 08:04:17;;;;;;;21.42;6.00;;;;;;;-146.61;100.00;58846.50;5027454;28;20057;-79
2022/10/05 08:06:50;;;;;;;8.68;5.45;;;;;;;-146.61;100.00;58846.50;5028391;28;20076;-78
2022/10/05 08:09:19;;;;;;;8.05;5.72;;;;;;;-146.61;100.00;58846.50;5027384;28;20663;-80
2022/10/05 08:12:18;;;;;;;6.85;4.70;;;;;;;-146.61;100.00;58846.50;5029564;28;20075;-79
2022/10/05 08:15:16;;;;;;;7.57;5.53;;;;;;;-146.61;100.00;58846.50;5026669;28;20045;-77
2022/10/05 08:17:50;;;;;;;9.73;5.55;;;;;;;-146.61;100.00;58846.50;5023748;28;20120;-77
2022/10/05 08:20:35;;;;;;;;;;;;;;;-146.61;100.00;58846.50;5027656;28;20053;-78
2022/10/05 08:23:34;;;;;;;11.90;6.00;;;;;;;-146.61;100.00;58846.50;5025603;28;19925;-82
2022/10/05 08:26:25;;;;;;;5.35;4.78;;;;;;;-146.61;100.00;58846.50;5023442;28;20480;-76
2022/10/05 08:29:03;;;;;;;5.97;4.75;;;;;;;-146.61;100.00;58846.50;5025376;28;20099;-76
2022/10/05 08:31:36;;;;;;;4.97;4.57;;;;;;;-146.61;100.00;58846.50;5031542;28;20091;-77
2022/10/05 08:34:19;;;;;;;4.20;3.90;;;;;;;-146.61;100.00;58846.50;5025026;28;20079;-76
2022/10/05 08:36:56;;;;;;;7.15;4.72;;;;;;;-146.61;100.00;58846.50;5026712;28;21734;-77
2022/10/05 08:39:27;;;;;;;6.72;5.25;;;;;;;-146.61;100.00;58846.50;5024131;28;20052;-77
2022/10/05 08:42:53;;;;;;;7.63;5.15;;;;;;;-146.61;100.00;58846.50;5029483;28;20374;-76
2022/10/05 08:45:50;;;;;;;6.25;4.35;;;;;;;-146.61;100.00;58846.50;5025115;28;20053;-76
2022/10/05 08:48:49;;;;;;;6.68;4.72;;;;;;;-146.61;100.00;58846.50;5029045;28;20045;-77
2022/10/05 08:51:37;;;;;;;6.63;4.65;;;;;;;-146.61;100.00;58846.50;5028889;28;20092;-77
2022/10/05 08:54:34;;;;;;;5.32;4.10;;;;;;;-146.61;100.00;58846.50;5026187;28;20140;-77
2022/10/05 08:57:27;;;;;;;5.18;4.68;;;;;;;-146.61;100.00;58846.50;5024381;28;20357;-75
2022/10/05 09:00:18;;;;;;;8.43;4.18;;;;;;;-146.61;100.00;58846.50;5027454;28;20073;-76
2022/10/05 09:03:15;;;;;;;5.80;3.92;;;;;;;-146.61;100.00;58846.50;5025733;28;20389;-76
2022/10/05 09:06:00;;;;;;;9.40;4.10;;;;;;;-146.61;100.00;58846.50;5023630;28;20057;-75
2022/10/05 09:08:38;;;;;;;7.13;3.92;;;;;;;-146.61;100.00;58846.50;5024780;28;20140;-79
2022/10/05 09:11:20;;;;;;;4.18;3.75;;;;;;;-146.61;100.00;58846.50;5025326;28;20050;-76
2022/10/05 09:13:49;;;;;;;11.23;4.15;;;;;;;-146.61;100.00;58846.50;5025042;28;20061;-76
2022/10/05 09:16:22;;;;;;;4.35;3.95;;;;;;;-146.61;100.00;58846.50;5028564;28;20053;-79
2022/10/05 09:19:21;;;;;;;7.32;3.83;;;;;;;-146.61;100.00;58846.50;5024049;28;20072;-76
2022/10/05 09:22:13;;;;;;;5.68;3.45;;;;;;;-146.61;100.00;58846.50;5027883;28;20060;-78
2022/10/05 09:24:54;;;;;;;5.15;3.95;;;;;;;-146.61;100.00;58846.50;5025676;28;20129;-75
2022/10/05 09:27:33;;;;;;;3.85;3.42;;;;;;;-146.61;100.00;58846.50;5023278;28;20057;-76
2022/10/05 09:30:20;;;;;;;4.60;3.97;;;;;;;-146.61;100.00;58846.50;5021848;28;20045;-78
2022/10/05 09:32:52;;;;;;;5.03;3.38;;;;;;;-146.61;100.00;58846.50;5021172;28;20046;-76
2022/10/05 09:36:04;;;;;;;8.57;3.50;;;;;;;-146.61;100.00;58846.50;5023799;28;20048;-77
2022/10/05 09:38:53;;;;;;;4.13;3.40;;;;;;;-146.61;100.00;58846.50;5027818;28;20060;-76
2022/10/05 09:41:33;;;;;;;3.97;3.47;;;;;;;-146.61;100.00;58846.50;5024417;28;20049;-79
2022/10/05 09:44:27;;;;;;;4.32;3.50;;;;;;;-146.61;100.00;58846.50;5021715;28;20841;-80
2022/10/05 09:47:32;;;;;;;3.53;3.22;;;;;;;-146.61;100.00;58846.50;5027446;28;20055;-78
2022/10/05 09:50:26;;;;;;;5.65;3.25;;;;;;;-146.61;100.00;58846.50;5028604;28;20040;-79
2022/10/05 09:53:04;;;;;;;6.05;3.33;;;;;;;-146.61;100.00;58846.50;5031151;28;20491;-79
2022/10/05 09:56:08;;;;;;;6.95;3.00;;;;;;;-146.61;100.00;58846.50;5025346;28;20340;-78
2022/10/05 09:58:43;;;;;;;3.00;2.45;;;;;;;-146.61;100.00;58846.50;5030925;28;20053;-81
2022/10/05 10:01:37;;;;;;;3.15;2.83;;;;;;;-146.61;100.00;58846.50;5029999;28;20061;-77
2022/10/05 10:04:24;;;;;;;4.90;2.85;;;;;;;-146.61;100.00;58846.50;5026948;28;20057;-77
2022/10/05 10:07:09;;;;;;;2.60;2.38;;;;;;;-146.61;100.00;58846.50;5027333;28;20510;-81
2022/10/05 10:09:48;;;;;;;3.50;2.50;;;;;;;-146.61;100.00;58846.50;5026378;28;20038;-77
2022/10/05 10:12:38;;;;;;;3.92;3.05;;;;;;;-146.61;100.00;58846.50;5028505;28;20276;-76
2022/10/05 10:15:22;;;;;;;4.32;2.97;;;;;;;-146.61;100.00;58846.50;5029845;28;20046;-83
2022/10/05 10:18:01;;;;;;;5.03;2.50;;;;;;;-146.61;100.00;58846.50;5025776;28;20049;-77
2022/10/05 10:21:03;;;;;;;3.33;2.35;;;;;;;-146.61;100.00;58846.50;5028151;28;20134;-76
2022/10/05 10:23:47;;;;;;;3.95;2.83;;;;;;;-146.61;100.00;58846.50;5050595;28;20044;-82
2022/10/05 10:26:25;;;;;;;2.92;2.55;;;;;;;-146.61;100.00;58846.50;5023754;28;20184;-78
2022/10/05 10:29:10;;;;;;;3.45;2.50;;;;;;;-146.61;100.00;58846.50;5026777;28;20515;-78
2022/10/05 10:31:57;;;;;;;3.83;2.72;;;;;;;-146.61;100.00;58846.50;5046386;28;20041;-74
2022/10/05 10:34:57;;;;;;;5.25;3.28;;;;;;;-146.61;100.00;58846.50;5041960;28;20049;-76
2022/10/05 10:37:45;;;;;;;4.68;2.95;;;;;;;-146.61;100.00;58846.50;5027649;28;20038;-76
2022/10/05 10:40:36;;;;;;;4.95;2.80;;;;;;;-146.61;100.00;58846.50;5029827;28;20128;-79
2022/10/05 10:43:35;;;;;;;3.17;2.60;;;;;;;-146.61;100.00;58846.50;5029104;28;20137;-77
2022/10/05 10:46:33;;;;;;;4.10;2.65;;;;;;;-146.61;100.00;58846.50;5035647;28;20087;-78
2022/10/05 10:49:36;;;;;;;2.80;2.60;;;;;;;-146.61;100.00;58846.50;5032988;28;20152;-77
2022/10/05 10:52:21;;;;;;;3.15;2.45;;;;;;;-146.61;100.00;58846.50;5031125;28;20096;-76
2022/10/05 10:55:05;;;;;;;4.65;2.40;;;;;;;-146.61;100.00;58846.50;5034752;28;20037;-75
2022/10/05 10:57:51;;;;;;;3.15;2.83;;;;;;;-146.61;100.00;58846.50;5034090;28;20073;-77
2022/10/05 11:00:42;;;;;;;6.35;3.85;;;;;;;-146.61;100.00;58846.50;5031695;28;20049;-77
2022/10/05 11:03:45;;;;;;;2.30;2.10;;;;;;;-146.61;100.00;58846.50;5025678;28;20758;-77
2022/10/05 11:06:51;;;;;;;3.53;2.50;;;;;;;-146.61;100.00;58846.50;5034503;28;20041;-79
2022/10/05 11:09:39;;;;;;;3.25;2.58;;;;;;;-146.61;100.00;58846.50;5030285;28;20041;-78
2022/10/05 11:12:37;;;;;;;2.47;2.28;;;;;;;-146.61;100.00;58846.50;5024507;28;20038;-78
2022/10/05 11:15:31;;;;;;;2.47;2.20;;;;;;;-146.61;100.00;58846.50;5026606;28;20038;-78
2022/10/05 11:18:11;;;;;;;;;;;;;;;-146.61;100.00;58846.50;5028448;28;20043;-77
2022/10/05 11:20:50;;;;;;;3.08;2.70;;;;;;;-146.61;100.00;58846.50;5026235;28;19921;-78
2022/10/05 11:23:35;;;;;;;3.65;2.05;;;;;;;-146.61;100.00;58846.50;5034719;28;20492;-76
2022/10/05 11:26:31;;;;;;;3.28;2.42;;;;;;;-146.61;100.00;58846.50;5033146;28;20046;-80
2022/10/05 11:29:43;;;;;;;2.20;2.08;;;;;;;-146.61;100.00;58846.50;5026804;28;20555;-76
2022/10/05 11:32:56;;;;;;;2.00;1.80;;;;;;;-146.61;100.00;58846.50;5025314;28;20659;-76
2022/10/05 11:36:01;;;;;;;1.83;1.73;;;;;;;-146.61;100.00;58846.50;5021426;28;20117;-79
2022/10/05 11:38:55;;;;;;;2.38;1.92;;;;;;;-146.61;100.00;58846.50;4994579;28;20055;-78
2022/10/05 11:41:40;;;;;;;;;;;;;;;-146.61;100.00;58846.50;5025395;28;20070;-77
2022/10/05 11:44:46;;;;;;;1.85;1.75;;;;;;;-146.61;100.00;58846.50;5028877;28;19932;-74
2022/10/05 11:47:27;;;;;;;3.28;1.75;;;;;;;-146.61;100.00;58846.50;5028349;28;20048;-75
2022/10/05 11:50:12;;;;;;;2.92;2.00;;;;;;;-146.61;100.00;58846.50;5025804;28;20033;-77
2022/10/05 11:52:46;;;;;;;2.72;2.30;;;;;;;-146.61;100.00;58846.50;5041425;28;20061;-76
2022/10/05 11:55:19;;;;;;;;;;;;;;;-146.61;100.00;58846.50;5030102;28;20076;-75
2022/10/05 11:57:53;;;;;;;2.30;2.10;;;;;;;-146.61;100.00;58846.50;5024536;28;19925;-75
2022/10/05 12:00:39;;;;;;;3.13;1.83;;;;;;;-146.61;100.00;58846.50;5031543;28;20052;-77
2022/10/05 12:03:32;;;;;;;2.03;1.92;;;;;;;-146.61;100.00;58846.50;5026588;28;20404;-78
2022/10/05 12:06:35;;;;;;;2.17;1.70;;;;;;;-146.61;100.00;58846.50;5026561;28;20052;-77
2022/10/05 12:09:19;;;;;;;3.22;2.03;;;;;;;-146.61;100.00;58846.50;5026334;28;20140;-77
2022/10/05 12:12:09;;;;;;;1.73;1.48;;;;;;;-146.61;100.00;58846.50;5027807;28;20045;-75
2022/10/05 12:15:06;;;;;;;2.78;2.13;;;;;;;-146.61;100.00;58846.50;5031315;28;20140;-76
2022/10/05 12:17:38;;;;;;;1.83;1.60;;;;;;;-146.61;100.00;58846.50;5018133;28;20091;-76
2022/10/05 12:20:18;;;;;;;3.53;2.10;;;;;;;-146.61;100.00;58846.50;5036750;28;20403;-79
2022/10/05 12:22:48;;;;;;;3.33;2.10;;;;;;;-146.61;100.00;58846.50;5029380;28;20042;-75
2022/10/05 12:25:39;;;;;;;2.88;2.13;;;;;;;-146.61;100.00;58846.50;5025013;28;20049;-80
2022/10/05 12:28:12;;;;;;;2.92;1.60;;;;;;;-146.61;100.00;58846.50;5039823;28;20043;-77
2022/10/05 12:30:56;;;;;;;;;;;;;;;-146.61;100.00;58846.50;5027995;28;20107;-75